NACIONALNO OTVORENO PRVENSTVO HRVATSKE U KARTINGU
1. NAGRADA MULTICONSULT LEASING-A '08
Čakovec-Belica, 22.06.2008.

KLASA I - 1. UTRKA
Poz. S.b. Vozač Klub Nac. Krug Vrijeme Zaostatak Bod.
1. 2 Muhammad Pličanić AK Info Kart HR 5 5:46,892 0:00,000 -
2. 6 Leo Grdić Podravina Koprivnica HR 5 5:54,852 0:07,960 -
3. 3 Fran Tisaj KK Koprivnica HR 5 6:00,286 0:13,394 -
4. 7 Jan Pokos AK Speedy HR 5 6:00,843 0:13,951 -
5. 4 Matija Kovačić KK 1 Zagreb HR 5 6:01,932 0:15,040 -
6. 8 Mia Matrljan Podravina Koprivnica HR 5 6:11,685 0:24,793 -
7. 21 Adrian Sekulić Podravina Koprivnica HR 5 6:35,197 0:48,305 -
 
KLASA II - 1. UTRKA
Poz. S.b. Vozač Klub Nac. Krug Vrijeme Zaostatak Bod.
1. 25 Martin Kodrić KK 1 Zagreb HR 10 9:56,388 0:00,000 20
2. 6 Mislav Mikulec AK Info Kart HR 10 9:59,203 0:02,815 15
3. 15 Benjamin Žganec KK 1 Zagreb HR 10 9:59,276 0:02,888 12
4. 2 Moni Petrović AK Speedy HR 10 10:01,708 0:05,320 10
5. 3 Juraj Kovačić KK 1 Zagreb HR 10 10:05,163 0:08,775 8
6. 21 Damian Sekulić KU Novi Marof HR 10 10:14,396 0:18,008 6
7. 22 Luka Đurđ KK Koprivnica HR 10 10:32,928 0:36,540 4
8. 8 Ivica Šimunić AMK Stubaki HR 9 10:11,190 1 krug 3
9. 12 Dino Paleka KK Koprivnica HR 9 10:29,732 1 krug 2
- 7 Petra Lesički Podravina Koprivnica HR 3 odustala -
- 23 Edi Žilić AMK Cobra HR 0 nije startao -
- 24 Luka Moslavac AMK Cobra HR 0 nije startao -
 
KLASA II - 2. UTRKA
Poz. S.b. Vozač Klub Nac. Krug Vrijeme Zaostatak Bod.
1. 2 Moni Petrović AK Speedy HR 10 9:59,390 0:00,000 20
2. 6 Mislav Mikulec AK Info Kart HR 10 10:00,010 0:00,620 15
3. 15 Benjamin Žganec KK 1 Zagreb HR 10 10:00,574 0:01,184 12
4. 3 Juraj Kovačić KK 1 Zagreb HR 10 10:11,817 0:12,427 10
5. 21 Damian Sekulić KU Novi Marof HR 10 10:25,970 0:26,580 8
6. 12 Dino Paleka KK Koprivnica HR 10 10:31,947 0:32,557 6
7. 22 Luka Đurđ KK Koprivnica HR 10 10:37,761 0:38,371 4
8. 8 Ivica Šimunić AMK Stubaki HR 9 10:26,934 1 krug 3
9. 24 Luka Moslavac AMK Cobra HR 8 10:06,013 2 kruga 2
- 25 Martin Kodrić KK 1 Zagreb HR 9 odustao -
- 7 Petra Lesički Podravina Koprivnica HR 0 nije startala -
- 23 Edi Žilić AMK Cobra HR 0 nije startao -
 
KLASA V - 1. UTRKA
Poz. S.b. Vozač Klub Nac. Krug Vrijeme Zaostatak Bod.
1. 22 Nikola Belohradski Klakson HR 9 7:34,034 0:00,000 20
2. 405 Borna Vlašić Podravina Koprivnica HR 9 7:37,316 0:03,282 15
3. 424 Sanjin Trope AK Quickly HR 9 7:37,330 0:03,296 12
4. 7 Tomislav Pavlić KK 1 Zagreb HR 9 7:42,809 0:08,775 10
5. 25 Antun Bošnjak KK Koprivnica HR 9 7:47,851 0:13,817 8
 
KLASA V - 2. UTRKA
Poz. S.b. Vozač Klub Nac. Krug Vrijeme Zaostatak Bod.
1. 22 Nikola Belohradski Klakson HR 10 8:25,300 0:00,000 20
2. 424 Sanjin Trope AK Quickly HR 10 8:25,546 0:00,246 15
3. 405 Borna Vlašić Podravina Koprivnica HR 10 8:28,873 0:03,573 12
4. 7 Tomislav Pavlić KK 1 Zagreb HR 10 8:34,510 0:09,210 10
5. 25 Antun Bošnjak KK Koprivnica HR 10 8:45,471 0:20,171 8
 
KLASA VII - 1. UTRKA
Poz. S.b. Vozač Klub Nac. Krug Vrijeme Zaostatak Bod.
1. 264 Nedeljko Vucelić KK 1 Zagreb HR 16 13:02,498 0:00,000 0
2. 7 Branimir Rojko KK Koprivnica HR 16 13:30,309 0:27,811 20
3. 2 Damir Nakić KK 1 Zagreb HR 16 13:32,331 0:29,833 15
4. 10 Zlatko Banić SAK Split HR 16 13:36,018 0:33,520 12
5. 33 Renato Dujmović AMK Buzet HR 16 13:51,909 0:49,411 10
6. 5 Tomislav Lovrenc AMK Cobra HR 15 13:39,692 1 krug 8
- 22 Krešimir Poljak KK 1 Zagreb HR 14 isključen -
- 15 Neven Perčić AMD Matulji Racing HR 6 odustao -
- 3 Miljenko Antolić KK 1 Zagreb HR 5 odustao -
- 1 Ratko Medenec KK 1 Zagreb HR 3 odustao -
- 6 Mario Spaija SAK Split HR 1 odustao -
 
KLASA VII - 2. UTRKA
Poz. S.b. Vozač Klub Nac. Krug Vrijeme Zaostatak Bod.
1. 1 Ratko Medenec KK 1 Zagreb HR 16 13:27,646 0:00,000 20
2. 15 Neven Perčić AMD Matulji Racing HR 16 13:31,662 0:04,016 15
3. 7 Branimir Rojko KK Koprivnica HR 16 13:32,536 0:04,890 12
4. 10 Zlatko Banić SAK Split HR 16 13:43,277 0:15,631 10
5. 33 Renato Dujmović AMK Buzet HR 16 13:44,063 0:16,417 8
6. 3 Miljenko Antolić KK 1 Zagreb HR 16 13:46,381 0:18,735 6
7. 5 Tomislav Lovrenc AMK Cobra HR 15 13:46,454 1 krug 4
8. 2 Damir Nakić KK 1 Zagreb HR 14 12:53,999 2 kruga 3
- 6 Mario Spaija SAK Split HR 16 isključen -
- 22 Krešimir Poljak KK 1 Zagreb HR 15 isključen -
- 264 Nedeljko Vucelić KK 1 Zagreb HR 0 nije startao -
 
KLASA VIII - 1. UTRKA
Poz. S.b. Vozač Klub Nac. Krug Vrijeme Zaostatak Bod.
1. 6 Kristijan Habulin KK 1 Zagreb HR 14 11:30,288 0:00,000 20
2. 74 Renco Majdak KK 1 Zagreb HR 14 11:31,599 0:01,311 15
3. 13 Matija Momčilović Podravina Koprivnica HR 14 11:33,041 0:02,753 12
4. 4 Karlo Golub KK 1 Zagreb HR 14 11:38,226 0:07,938 10
5. 1 Sven Gorup AMD Zanatlija HR 14 11:41,601 0:11,313 8
6. 617 Hinko Pavlec KU Novi Marof HR 14 11:42,213 0:11,925 6
7. 35 Konrad Mulvaj Podravina Koprivnica HR 14 11:57,325 0:27,037 4
- 2 Tomislav Srbljinović KK 1 Zagreb HR 8 odustao -
 
KLASA VIII - 2. UTRKA
Poz. S.b. Vozač Klub Nac. Krug Vrijeme Zaostatak Bod.
1. 6 Kristijan Habulin KK 1 Zagreb HR 14 11:37,254 0:00,000 20
2. 13 Matija Momčilović Podravina Koprivnica HR 14 11:37,723 0:00,469 15
3. 4 Karlo Golub KK 1 Zagreb HR 14 11:44,768 0:07,514 12
4. 1 Sven Gorup AMD Zanatlija HR 14 11:48,149 0:10,895 10
5. 74 Renco Majdak KK 1 Zagreb HR 14 11:52,503 0:15,249 8
6. 2 Tomislav Srbljinović KK 1 Zagreb HR 14 11:59,038 0:21,784 6
7. 35 Konrad Mulvaj Podravina Koprivnica HR 14 12:04,370 0:27,116 4
- 617 Hinko Pavlec KU Novi Marof HR 0 isključen -
 
KLASA IX - 1. UTRKA
Poz. S.b. Vozač Klub Nac. Krug Vrijeme Zaostatak Bod.
1. 5 Hrvoje Tisaj KK Koprivnica HR 13 12:01,532 0:00,000 20
2. 3 Samir Smailagić AK Info Kart HR 13 12:03,534 0:02,002 15
3. 1 Vladimir Vukobrat AK Info Kart HR 13 12:11,492 0:09,960 12
4. 20 Ivijan Rajnović AMK Cobra HR 13 12:23,792 0:22,260 10
5. 4 Tihomir Špek KK 1 Zagreb HR 13 12:48,664 0:47,132 8
6. 22 Miljenko Šimunić AMK Stubaki HR 13 12:51,099 0:49,567 6
- 13 Tomislav Kelbl KK Koprivnica HR 0 odustao -
- 17 Alan Vorkapić KK Koprivnica HR 0 odustao -
 
KLASA IX - 2. UTRKA
Poz. S.b. Vozač Klub Nac. Krug Vrijeme Zaostatak Bod.
1. 3 Samir Smailagić AK Info Kart HR 13 12:03,764 0:00,000 20
2. 5 Hrvoje Tisaj KK Koprivnica HR 13 12:11,949 0:08,185 15
3. 17 Alan Vorkapić KK Koprivnica HR 13 12:13,528 0:09,764 12
4. 20 Ivijan Rajnović AMK Cobra HR 13 12:25,912 0:22,148 10
5. 4 Tihomir Špek KK 1 Zagreb HR 13 12:47,221 0:43,457 8
6. 22 Miljenko Šimunić AMK Stubaki HR 13 12:52,100 0:48,336 6
- 1 Vladimir Vukobrat AK Info Kart HR 11 odustao -
- 13 Tomislav Kelbl KK Koprivnica HR 0 nije startao -
 
PRVENSTVO HRVATSKE